createdAt,value
2023-02-08T06:50:11.002Z,-4.30
2023-02-08T06:53:13.120Z,-4.10
2023-02-08T06:56:15.045Z,-3.80
2023-02-08T06:59:16.938Z,-3.60
2023-02-08T07:02:23.487Z,-3.40
2023-02-08T07:05:25.548Z,-3.50
2023-02-08T07:08:27.844Z,-3.40
2023-02-08T07:11:34.162Z,-3.40
2023-02-08T07:14:41.945Z,-3.40
2023-02-08T07:17:44.296Z,-3.30
2023-02-08T07:20:47.137Z,-3.30
2023-02-08T07:23:51.692Z,-3.30
2023-02-08T07:26:54.185Z,-3.30
2023-02-08T07:29:56.743Z,-3.30
2023-02-08T07:33:00.580Z,-3.30
2023-02-08T07:36:05.973Z,-3.20
2023-02-08T07:39:08.456Z,-3.10
2023-02-08T07:42:11.167Z,-3.00
2023-02-08T07:45:13.082Z,-2.70
2023-02-08T07:48:14.842Z,-2.10
2023-02-08T07:51:17.078Z,-1.10
2023-02-08T07:54:19.020Z,-0.20
2023-02-08T07:57:22.309Z,0.70
2023-02-08T08:00:24.670Z,0.90
2023-02-08T08:03:26.557Z,0.70
2023-02-08T08:06:28.514Z,0.80
2023-02-08T08:09:30.564Z,0.70
2023-02-08T08:12:32.826Z,0.60
2023-02-08T08:15:35.204Z,1.00
2023-02-08T08:18:38.069Z,1.10
2023-02-08T08:21:40.230Z,1.30
2023-02-08T08:24:42.114Z,1.70
2023-02-08T08:27:44.021Z,2.00
2023-02-08T08:30:46.273Z,2.00
2023-02-08T08:33:49.392Z,2.20
2023-02-08T08:36:51.464Z,2.60
2023-02-08T08:39:53.290Z,2.70
2023-02-08T08:42:58.090Z,2.20
2023-02-08T08:46:02.800Z,2.40
2023-02-08T08:49:08.685Z,2.60
2023-02-08T08:52:14.449Z,3.00
2023-02-08T08:55:16.570Z,2.60
2023-02-08T08:58:21.663Z,2.30
2023-02-08T09:01:24.277Z,2.50
2023-02-08T09:04:26.872Z,2.60
2023-02-08T09:07:29.463Z,3.30
2023-02-08T09:10:34.462Z,3.50
2023-02-08T09:13:38.520Z,4.30
2023-02-08T09:16:43.311Z,4.40
2023-02-08T09:19:48.142Z,4.70
2023-02-08T09:22:51.985Z,4.60
2023-02-08T09:25:58.013Z,4.10
2023-02-08T09:29:01.526Z,4.30
2023-02-08T09:32:04.119Z,4.30
2023-02-08T09:35:08.460Z,4.70
2023-02-08T09:38:11.033Z,4.70
2023-02-08T09:41:23.651Z,4.80
2023-02-08T09:45:10.502Z,4.50
2023-02-08T09:48:14.667Z,5.10
2023-02-08T09:51:33.150Z,5.10
2023-02-08T09:54:39.877Z,4.60
2023-02-08T09:57:44.451Z,4.60
2023-02-08T10:00:51.501Z,4.90
2023-02-08T10:03:59.862Z,5.00
2023-02-08T10:07:01.721Z,5.20
2023-02-08T10:10:06.664Z,4.60
2023-02-08T10:13:41.702Z,4.80
2023-02-08T10:17:21.604Z,4.70
2023-02-08T10:20:51.949Z,5.30
2023-02-08T10:24:21.784Z,4.90
2023-02-08T10:27:48.242Z,5.30
2023-02-08T10:31:03.436Z,5.10
2023-02-08T10:34:14.236Z,5.30
2023-02-08T10:37:25.985Z,6.00
2023-02-08T10:40:34.743Z,5.30
2023-02-08T10:43:47.213Z,4.80
2023-02-08T10:47:24.030Z,5.20
2023-02-08T10:50:48.334Z,4.90
2023-02-08T10:53:51.916Z,5.10
2023-02-08T10:57:13.932Z,5.90
2023-02-08T11:00:27.689Z,6.40
2023-02-08T11:03:31.054Z,5.90
2023-02-08T11:06:33.810Z,5.10
2023-02-08T11:09:37.891Z,5.30
2023-02-08T11:12:42.814Z,5.90
2023-02-08T11:16:01.473Z,5.40
2023-02-08T11:19:08.421Z,5.50
2023-02-08T11:22:17.406Z,6.10
2023-02-08T11:25:36.456Z,5.50
2023-02-08T11:28:39.328Z,5.10
2023-02-08T11:32:02.741Z,5.50
2023-02-08T11:35:24.404Z,5.20
2023-02-08T11:38:30.558Z,5.10
2023-02-08T11:41:37.719Z,5.30
2023-02-08T11:44:46.106Z,5.10
2023-02-08T11:47:51.021Z,5.20
2023-02-08T11:51:00.474Z,4.80
2023-02-08T11:54:07.147Z,5.10
2023-02-08T11:57:19.873Z,5.30
2023-02-08T12:00:28.927Z,5.10
2023-02-08T12:03:38.983Z,4.30
2023-02-08T12:06:55.948Z,3.90
2023-02-08T12:10:09.977Z,3.70
2023-02-08T12:13:23.690Z,3.50
2023-02-08T12:16:36.140Z,3.30
2023-02-08T12:20:03.329Z,3.40
2023-02-08T12:23:46.182Z,3.50
2023-02-08T12:27:27.374Z,3.30
2023-02-08T12:30:54.604Z,3.10
2023-02-08T12:34:09.096Z,3.10
2023-02-08T12:37:29.923Z,3.00
2023-02-08T12:40:55.375Z,3.20
2023-02-08T12:44:09.266Z,3.10
2023-02-08T12:47:22.881Z,3.10
2023-02-08T12:50:33.472Z,3.20
2023-02-08T12:53:43.400Z,3.10
2023-02-08T12:57:01.484Z,3.10
2023-02-08T13:00:04.090Z,3.20
2023-02-08T13:03:16.617Z,3.30
2023-02-08T13:06:24.906Z,3.40
2023-02-08T13:09:34.438Z,3.50
2023-02-08T13:12:42.393Z,3.60
2023-02-08T13:15:52.088Z,3.70
2023-02-08T13:19:24.322Z,3.70
2023-02-08T13:22:26.761Z,3.60
2023-02-08T13:25:37.949Z,3.50
2023-02-08T13:28:40.442Z,3.60
2023-02-08T13:31:47.024Z,3.60
2023-02-08T13:34:54.106Z,3.60
2023-02-08T13:38:31.710Z,3.50
2023-02-08T13:41:35.466Z,3.60
2023-02-08T13:44:40.144Z,3.70
2023-02-08T13:47:49.941Z,3.80
2023-02-08T13:50:56.822Z,3.80
2023-02-08T13:53:58.521Z,3.80
2023-02-08T13:57:00.401Z,3.90
2023-02-08T14:00:24.838Z,4.00
2023-02-08T14:03:31.574Z,4.10
2023-02-08T14:06:37.635Z,4.00
2023-02-08T14:09:48.509Z,3.80
2023-02-08T14:13:09.205Z,3.90
2023-02-08T14:16:23.076Z,4.00
2023-02-08T14:19:25.396Z,3.80
2023-02-08T14:22:36.400Z,3.90
2023-02-08T14:25:43.325Z,3.90
2023-02-08T14:28:48.758Z,4.00
2023-02-08T14:31:51.196Z,4.00
2023-02-08T14:35:13.117Z,4.10
2023-02-08T14:38:20.715Z,4.00
2023-02-08T14:41:45.918Z,3.90
2023-02-08T14:44:57.769Z,4.00
2023-02-08T14:48:23.362Z,4.00
2023-02-08T14:51:31.750Z,3.90
2023-02-08T14:54:41.682Z,4.00
2023-02-08T14:57:43.945Z,4.00
2023-02-08T15:00:46.038Z,3.90
2023-02-08T15:03:52.851Z,4.00
2023-02-08T15:07:17.944Z,3.90
2023-02-08T15:10:21.692Z,4.00
2023-02-08T15:13:24.785Z,3.90
2023-02-08T15:16:35.579Z,3.80
2023-02-08T15:19:39.077Z,3.90
2023-02-08T15:22:40.722Z,3.80
2023-02-08T15:25:42.870Z,3.80
2023-02-08T15:28:45.640Z,3.80
2023-02-08T15:31:48.339Z,3.90
2023-02-08T15:34:59.316Z,3.80
2023-02-08T15:38:05.374Z,3.60
2023-02-08T15:41:13.129Z,3.60
2023-02-08T15:44:19.584Z,3.50
2023-02-08T15:47:28.500Z,3.40
2023-02-08T15:50:31.907Z,3.40
2023-02-08T15:53:43.594Z,3.30
2023-02-08T15:57:17.017Z,3.20
2023-02-08T16:00:26.509Z,3.20
2023-02-08T16:03:29.395Z,3.00
2023-02-08T16:06:46.199Z,2.90
2023-02-08T16:09:47.894Z,2.80
2023-02-08T16:12:59.962Z,2.70
2023-02-08T16:16:42.811Z,2.80
2023-02-08T16:19:51.344Z,2.70
2023-02-08T16:22:57.444Z,2.60
2023-02-08T16:26:12.564Z,2.60
2023-02-08T16:29:35.191Z,2.40
2023-02-08T16:32:39.437Z,2.30
2023-02-08T16:35:41.393Z,2.20
2023-02-08T16:38:47.633Z,2.20
2023-02-08T16:42:15.356Z,2.10
2023-02-08T16:45:22.512Z,1.90
2023-02-08T16:48:34.998Z,1.90
2023-02-08T16:51:39.391Z,1.90
2023-02-08T16:54:41.129Z,1.90
2023-02-08T16:57:51.922Z,1.80
